Terminal Aerodrome Forecast
Issued by NWS Amarillo, TX

Home | Current Version | Previous Version | Text Only | Print | Product List | Glossary On
Versions: 1 2 3 4 5 6 7 8 9 10 11 12
000
FTUS44 KAMA 210542
TAFAMA
TAF
KAMA 210542Z 2106/2206 18024KT P6SM SKC
     FM211000 22016KT P6SM SCT008
     FM211500 26015KT P6SM FEW250
     FM212000 32020G30KT P6SM BKN100
     FM220200 36014KT P6SM SKC=

USA.gov is the U.S. government's official web portal to all federal, state and local government web resources and services.